Time;durP1;ratioP1;P1;durP2;ratioP2;P2;SDS_P1;SDS_P2;PMS_P1;PMS_P2;Temp;Humidity;BMP_temperature;BMP_pressure;BME280_temperature;BME280_humidity;BME280_pressure;Samples;Min_cycle;Max_cycle;Signal;HPM_P1;HPM_P2
2020/12/18 00:01:09;;;;;;;230.63;48.42;;;2.50;99.90;;;;;;5033049;28;20045;-76
2020/12/18 00:03:35;;;;;;;283.83;48.63;;;2.40;99.90;;;;;;5000886;28;20076;-77
2020/12/18 00:06:01;;;;;;;322.02;51.92;;;2.40;99.90;;;;;;5032200;28;20104;-77
2020/12/18 00:08:32;;;;;;;225.52;42.65;;;2.40;99.90;;;;;;5020181;28;20101;-78
2020/12/18 00:10:58;;;;;;;224.70;46.45;;;2.50;99.90;;;;;;5033229;28;20026;-76
2020/12/18 00:13:24;;;;;;;238.70;46.47;;;2.40;99.90;;;;;;5027363;28;20026;-75
2020/12/18 00:15:52;;;;;;;137.05;37.92;;;2.40;99.90;;;;;;5031191;28;20045;-77
2020/12/18 00:18:18;;;;;;;315.70;52.78;;;2.50;99.90;;;;;;5028608;28;20071;-77
2020/12/18 00:20:44;;;;;;;248.77;46.75;;;2.40;99.90;;;;;;5032456;28;20116;-75
2020/12/18 00:23:10;;;;;;;235.35;47.67;;;2.40;99.90;;;;;;5003190;28;20029;-76
2020/12/18 00:25:35;;;;;;;256.88;48.53;;;2.50;99.90;;;;;;5031389;28;20037;-76
2020/12/18 00:28:01;;;;;;;159.68;40.38;;;2.50;99.90;;;;;;5030227;28;20025;-76
2020/12/18 00:30:27;;;;;;;159.00;42.47;;;2.40;99.90;;;;;;5031702;28;20025;-76
2020/12/18 00:32:53;;;;;;;192.43;42.05;;;2.40;99.90;;;;;;5029919;28;20032;-76
2020/12/18 00:35:19;;;;;;;183.80;39.80;;;2.30;99.90;;;;;;5029845;28;20033;-76
2020/12/18 00:37:45;;;;;;;257.95;48.42;;;2.20;99.90;;;;;;5030553;28;20111;-76
2020/12/18 00:40:14;;;;;;;219.63;47.10;;;2.30;99.90;;;;;;5014260;28;20481;-75
2020/12/18 00:42:40;;;;;;;195.15;43.92;;;2.30;99.90;;;;;;5032881;28;20025;-76
2020/12/18 00:45:05;;;;;;;228.77;43.38;;;2.30;99.90;;;;;;5032049;28;20072;-76
2020/12/18 00:47:31;;;;;;;240.15;50.30;;;2.20;99.90;;;;;;5006343;28;20049;-75
2020/12/18 00:49:57;;;;;;;222.32;43.80;;;2.20;99.90;;;;;;5028897;28;20048;-76
2020/12/18 00:52:25;;;;;;;234.02;45.03;;;2.30;99.90;;;;;;5032584;28;20030;-76
2020/12/18 00:54:51;;;;;;;242.02;43.40;;;2.30;99.90;;;;;;5032560;28;20029;-76
2020/12/18 00:57:16;;;;;;;224.85;43.05;;;2.40;99.90;;;;;;5032338;28;20395;-76
2020/12/18 00:59:42;;;;;;;177.70;38.85;;;2.40;99.90;;;;;;5021171;28;20113;-75
2020/12/18 01:02:08;;;;;;;110.03;35.55;;;2.40;99.90;;;;;;5030767;28;20017;-75
2020/12/18 01:04:34;;;;;;;254.30;44.58;;;2.50;99.90;;;;;;5032232;28;20456;-77
2020/12/18 01:07:00;;;;;;;178.02;41.35;;;2.50;99.90;;;;;;5031718;28;20028;-75
2020/12/18 01:09:25;;;;;;;209.68;41.90;;;2.50;99.90;;;;;;5032372;28;20441;-75
2020/12/18 01:11:52;;;;;;;283.30;47.35;;;2.50;99.90;;;;;;5002252;28;20072;-75
2020/12/18 01:14:18;;;;;;;190.40;39.78;;;2.50;99.90;;;;;;5031814;28;20036;-74
2020/12/18 01:16:55;;;;;;;225.55;42.97;;;2.50;99.90;;;;;;5032507;28;20430;-75
2020/12/18 01:19:22;;;;;;;148.60;39.75;;;2.50;99.90;;;;;;5030957;28;20104;-75
2020/12/18 01:21:49;;;;;;;174.13;39.20;;;2.60;99.90;;;;;;5024985;28;20037;-74
2020/12/18 01:24:15;;;;;;;174.95;37.78;;;2.50;99.90;;;;;;5012662;28;20121;-75
2020/12/18 01:26:42;;;;;;;204.13;43.45;;;2.40;99.90;;;;;;5013412;28;20368;-78
2020/12/18 01:29:08;;;;;;;166.05;38.72;;;2.40;99.90;;;;;;5031232;28;20084;-76
2020/12/18 01:31:33;;;;;;;144.32;34.97;;;2.40;99.90;;;;;;5029880;28;20034;-77
2020/12/18 01:33:59;;;;;;;159.75;38.90;;;2.40;99.90;;;;;;5005351;28;20438;-74
2020/12/18 01:36:25;;;;;;;148.73;38.15;;;2.20;99.90;;;;;;5024495;28;20097;-74
2020/12/18 01:38:51;;;;;;;212.57;44.83;;;2.30;99.90;;;;;;5032094;28;20398;-74
2020/12/18 01:41:17;;;;;;;143.88;37.22;;;2.40;99.90;;;;;;5030373;28;20379;-76
2020/12/18 01:43:42;;;;;;;184.75;39.88;;;2.40;99.90;;;;;;5031121;28;20506;-75
2020/12/18 01:46:13;;;;;;;134.25;40.08;;;2.30;99.90;;;;;;5032681;28;20486;-75
2020/12/18 01:48:42;;;;;;;123.50;35.83;;;2.30;99.90;;;;;;5031925;28;20025;-74
2020/12/18 01:51:11;;;;;;;95.00;37.05;;;2.30;99.90;;;;;;5031273;28;20018;-73
2020/12/18 01:53:38;;;;;;;198.52;41.85;;;2.30;99.90;;;;;;5032123;28;20068;-75
2020/12/18 01:56:05;;;;;;;104.20;35.22;;;2.30;99.90;;;;;;5031912;28;20025;-74
2020/12/18 01:58:33;;;;;;;82.97;32.35;;;2.20;99.90;;;;;;5031992;28;20087;-76
2020/12/18 02:01:03;;;;;;;114.15;34.65;;;2.20;99.90;;;;;;5032222;28;20041;-78
2020/12/18 02:03:29;;;;;;;126.13;35.08;;;2.10;99.90;;;;;;5025863;28;20476;-75
2020/12/18 02:05:57;;;;;;;101.20;38.75;;;2.00;99.90;;;;;;5031669;28;20063;-78
2020/12/18 02:08:27;;;;;;;101.97;35.10;;;2.00;99.90;;;;;;5032018;28;20387;-75
2020/12/18 02:10:56;;;;;;;70.05;31.77;;;2.00;99.90;;;;;;5028773;28;20014;-76
2020/12/18 02:13:25;;;;;;;120.25;38.15;;;2.00;99.90;;;;;;5023353;28;20030;-75
2020/12/18 02:15:52;;;;;;;98.30;31.98;;;2.00;99.90;;;;;;5033508;28;20053;-75
2020/12/18 02:18:23;;;;;;;183.40;42.63;;;2.10;99.90;;;;;;5033839;28;20432;-76
2020/12/18 02:20:50;;;;;;;152.35;39.90;;;2.10;99.90;;;;;;5032487;28;20083;-75
2020/12/18 02:23:16;;;;;;;182.82;39.22;;;2.00;99.90;;;;;;5017829;28;20029;-76
2020/12/18 02:25:42;;;;;;;186.00;45.25;;;2.00;99.90;;;;;;5024551;28;20380;-75
2020/12/18 02:28:10;;;;;;;134.60;36.33;;;2.00;99.90;;;;;;4999015;28;20368;-75
2020/12/18 02:30:36;;;;;;;174.65;39.30;;;2.10;99.90;;;;;;4999030;28;20101;-75
2020/12/18 02:33:08;;;;;;;172.23;42.28;;;2.10;99.90;;;;;;5015918;28;20120;-74
2020/12/18 02:35:35;;;;;;;148.20;40.28;;;2.10;99.90;;;;;;5016480;28;20030;-76
2020/12/18 02:38:02;;;;;;;143.68;36.58;;;2.20;99.90;;;;;;5016729;28;20126;-75
2020/12/18 02:40:29;;;;;;;153.85;39.63;;;2.20;99.90;;;;;;5021697;28;20030;-75
2020/12/18 02:42:54;;;;;;;110.22;36.53;;;2.10;99.90;;;;;;5002701;28;20026;-75
2020/12/18 02:45:20;;;;;;;148.48;38.10;;;2.20;99.90;;;;;;5017842;28;20375;-75
2020/12/18 02:47:47;;;;;;;120.82;37.58;;;2.20;99.90;;;;;;5007607;28;20030;-74
2020/12/18 02:50:12;;;;;;;109.10;33.67;;;2.10;99.90;;;;;;5015850;28;20030;-74
2020/12/18 02:52:38;;;;;;;159.90;38.78;;;2.20;99.90;;;;;;4998200;28;20041;-76
2020/12/18 02:55:05;;;;;;;219.55;43.90;;;2.20;99.90;;;;;;5015676;28;20097;-75
2020/12/18 02:57:31;;;;;;;151.00;38.92;;;2.20;99.90;;;;;;5015743;28;20376;-75
2020/12/18 02:59:56;;;;;;;129.57;36.80;;;2.20;99.90;;;;;;5015309;28;20057;-76
2020/12/18 03:02:22;;;;;;;89.20;35.42;;;2.10;99.90;;;;;;5015494;28;20037;-74
2020/12/18 03:04:47;;;;;;;77.85;32.00;;;2.20;99.90;;;;;;5015776;28;20080;-75
2020/12/18 03:07:13;;;;;;;82.38;30.58;;;2.10;99.90;;;;;;5015057;28;20124;-74
2020/12/18 03:09:39;;;;;;;68.65;31.80;;;2.20;99.90;;;;;;5015784;28;20022;-74
2020/12/18 03:12:06;;;;;;;96.97;32.58;;;2.30;99.90;;;;;;5015552;28;20022;-74
2020/12/18 03:14:32;;;;;;;67.18;31.60;;;2.30;99.90;;;;;;5015052;28;20032;-74
2020/12/18 03:16:57;;;;;;;93.60;33.85;;;2.30;99.90;;;;;;5015934;28;20030;-74
2020/12/18 03:19:23;;;;;;;87.53;32.60;;;2.20;99.90;;;;;;5016093;28;20049;-72
2020/12/18 03:21:49;;;;;;;81.40;32.45;;;2.30;99.90;;;;;;5017207;28;20032;-73
2020/12/18 03:24:15;;;;;;;79.95;33.67;;;2.10;99.90;;;;;;5021947;28;20399;-74
2020/12/18 03:26:40;;;;;;;79.70;31.85;;;2.20;99.90;;;;;;5015600;28;20460;-73
2020/12/18 03:29:06;;;;;;;59.97;32.03;;;2.30;99.90;;;;;;4996871;28;20029;-73
2020/12/18 03:31:32;;;;;;;66.40;33.75;;;2.40;99.90;;;;;;5015311;28;20575;-74
2020/12/18 03:33:58;;;;;;;60.92;31.25;;;2.50;99.90;;;;;;5014912;28;20087;-74
2020/12/18 03:36:24;;;;;;;92.57;36.50;;;2.60;99.90;;;;;;4997381;28;20022;-72
2020/12/18 03:38:50;;;;;;;105.15;39.42;;;2.60;99.90;;;;;;5004643;28;20521;-74
2020/12/18 03:41:16;;;;;;;80.00;34.63;;;2.50;99.90;;;;;;5021174;28;20022;-74
2020/12/18 03:43:43;;;;;;;76.82;33.05;;;2.50;99.90;;;;;;5014573;28;20034;-75
2020/12/18 03:46:09;;;;;;;71.88;33.33;;;2.50;99.90;;;;;;5014906;28;20038;-75
2020/12/18 03:48:35;;;;;;;76.55;32.95;;;2.60;99.90;;;;;;5014283;28;20021;-75
2020/12/18 03:51:01;;;;;;;79.00;32.58;;;2.60;99.90;;;;;;5011675;28;20026;-74
2020/12/18 03:53:26;;;;;;;62.50;33.80;;;2.60;99.90;;;;;;5013248;28;20034;-75
2020/12/18 03:55:52;;;;;;;66.22;33.28;;;2.60;99.90;;;;;;5026080;28;20037;-74
2020/12/18 03:58:18;;;;;;;55.28;30.50;;;2.60;99.90;;;;;;5028386;28;20029;-75
2020/12/18 04:00:44;;;;;;;57.03;33.55;;;2.70;99.90;;;;;;5028253;28;20119;-74
2020/12/18 04:03:09;;;;;;;50.13;27.92;;;2.60;99.90;;;;;;5025667;28;20472;-74
2020/12/18 04:05:35;;;;;;;55.33;31.45;;;2.70;99.90;;;;;;5020845;28;20029;-74
2020/12/18 04:08:01;;;;;;;53.60;29.27;;;2.70;99.90;;;;;;5034253;28;20036;-75
2020/12/18 04:10:26;;;;;;;48.83;28.00;;;2.70;99.90;;;;;;5020121;28;20021;-74
2020/12/18 04:12:52;;;;;;;44.00;26.45;;;2.80;99.90;;;;;;5026483;28;20113;-74
2020/12/18 04:15:18;;;;;;;45.35;25.70;;;2.80;99.90;;;;;;5028350;28;20084;-75
2020/12/18 04:17:45;;;;;;;49.17;25.65;;;2.80;99.90;;;;;;5027896;28;20061;-74
2020/12/18 04:20:11;;;;;;;44.67;26.10;;;2.80;99.90;;;;;;5002190;28;20360;-73
2020/12/18 04:22:37;;;;;;;43.10;25.50;;;2.90;99.90;;;;;;5013948;28;20022;-74
2020/12/18 04:25:04;;;;;;;48.28;27.02;;;3.00;99.90;;;;;;5013522;28;20037;-74
2020/12/18 04:27:30;;;;;;;47.15;27.05;;;3.00;99.90;;;;;;5014121;28;20022;-74
2020/12/18 04:29:55;;;;;;;48.38;29.38;;;3.00;99.90;;;;;;5013721;28;20502;-77
2020/12/18 04:32:21;;;;;;;51.50;28.50;;;3.00;99.90;;;;;;5013816;28;20107;-74
2020/12/18 04:34:47;;;;;;;51.70;27.70;;;3.10;99.90;;;;;;5013676;28;20430;-75
2020/12/18 04:37:13;;;;;;;52.58;30.60;;;3.10;99.90;;;;;;5013594;28;20030;-76
2020/12/18 04:39:38;;;;;;;89.93;51.88;;;3.00;99.90;;;;;;5012611;28;20411;-75
2020/12/18 04:42:04;;;;;;;99.15;55.58;;;3.10;99.90;;;;;;5013534;28;20455;-76
2020/12/18 04:44:30;;;;;;;76.93;39.30;;;3.20;99.90;;;;;;5014036;28;20072;-75
2020/12/18 04:46:57;;;;;;;82.82;45.75;;;3.10;99.90;;;;;;5027115;28;20021;-73
2020/12/18 04:49:24;;;;;;;73.05;41.95;;;3.30;99.90;;;;;;5025887;28;20113;-76
2020/12/18 04:51:53;;;;;;;75.10;41.45;;;3.20;99.90;;;;;;5022543;28;20033;-76
2020/12/18 04:54:22;;;;;;;69.38;38.42;;;3.30;99.90;;;;;;5033377;28;20044;-75
2020/12/18 04:56:50;;;;;;;54.80;33.47;;;3.20;99.90;;;;;;5022118;28;20464;-75
2020/12/18 04:59:23;;;;;;;54.95;31.88;;;3.30;99.90;;;;;;5030129;28;20033;-75
2020/12/18 05:01:53;;;;;;;66.35;37.67;;;3.30;99.90;;;;;;5030427;28;20434;-76
2020/12/18 05:04:21;;;;;;;67.35;37.40;;;3.40;99.90;;;;;;5008328;28;20057;-75
2020/12/18 05:06:47;;;;;;;64.75;34.75;;;3.50;99.90;;;;;;5029184;28;20391;-75
2020/12/18 05:09:13;;;;;;;57.38;32.38;;;3.40;99.90;;;;;;5031025;28;20029;-73
2020/12/18 05:11:39;;;;;;;48.38;28.88;;;3.40;99.90;;;;;;5033098;28;20021;-73
2020/12/18 05:14:05;;;;;;;53.95;32.35;;;3.40;99.90;;;;;;5032305;28;20045;-74
2020/12/18 05:16:31;;;;;;;53.63;30.60;;;3.30;99.90;;;;;;5033097;28;20352;-73
2020/12/18 05:19:04;;;;;;;50.78;29.75;;;3.40;99.90;;;;;;5032270;28;20017;-74
2020/12/18 05:21:31;;;;;;;57.60;32.75;;;3.20;99.90;;;;;;5013865;28;20026;-73
2020/12/18 05:23:57;;;;;;;59.00;33.47;;;3.20;99.90;;;;;;5018732;28;20037;-73
2020/12/18 05:26:27;;;;;;;62.88;33.33;;;3.20;99.90;;;;;;5026022;28;20167;-74
2020/12/18 05:29:03;;;;;;;68.70;38.92;;;3.10;99.90;;;;;;5027781;28;20102;-74
2020/12/18 05:31:30;;;;;;;60.00;34.75;;;3.20;99.90;;;;;;5022372;28;20104;-73
2020/12/18 05:33:58;;;;;;;61.97;35.70;;;3.20;99.90;;;;;;5016320;28;20022;-75
2020/12/18 05:36:27;;;;;;;61.33;35.97;;;3.30;99.90;;;;;;5013158;28;20022;-75
2020/12/18 05:38:53;;;;;;;65.38;35.95;;;3.30;99.90;;;;;;5026914;28;20025;-74
2020/12/18 05:41:24;;;;;;;66.50;36.53;;;3.40;99.90;;;;;;5027915;28;20030;-75
2020/12/18 05:43:50;;;;;;;69.97;37.22;;;3.30;99.90;;;;;;5036046;28;20025;-74
2020/12/18 05:46:19;;;;;;;61.80;36.58;;;3.40;99.90;;;;;;5030054;28;20376;-75
2020/12/18 05:48:54;;;;;;;74.05;41.83;;;3.40;99.90;;;;;;5034025;28;20056;-75
2020/12/18 05:51:40;;;;;;;67.70;40.13;;;3.40;99.90;;;;;;5030791;28;20021;-76
2020/12/18 05:54:17;;;;;;;63.40;37.85;;;3.40;99.90;;;;;;5029486;28;20442;-74
2020/12/18 05:56:44;;;;;;;71.15;40.72;;;3.50;99.90;;;;;;5035006;28;20029;-75
2020/12/18 05:59:14;;;;;;;75.22;40.28;;;3.40;99.90;;;;;;5032614;28;20379;-74
2020/12/18 06:01:46;;;;;;;82.75;43.40;;;3.40;99.90;;;;;;5036379;28;20049;-74
2020/12/18 06:04:21;;;;;;;82.18;41.67;;;3.50;99.90;;;;;;5033133;28;20026;-74
2020/12/18 06:06:55;;;;;;;75.55;42.97;;;3.50;99.90;;;;;;5031357;28;20475;-73
2020/12/18 06:09:28;;;;;;;73.15;41.92;;;3.50;99.90;;;;;;5023545;28;20530;-73
2020/12/18 06:11:54;;;;;;;78.63;45.80;;;3.50;99.90;;;;;;5018927;28;20480;-74
2020/12/18 06:14:21;;;;;;;94.03;46.63;;;3.60;99.90;;;;;;5035915;28;20333;-74
2020/12/18 06:16:48;;;;;;;86.03;45.47;;;3.60;99.90;;;;;;5024036;28;20493;-75
2020/12/18 06:19:17;;;;;;;105.60;51.35;;;3.60;99.90;;;;;;5035728;28;20021;-75
2020/12/18 06:21:59;;;;;;;101.78;48.75;;;3.60;99.90;;;;;;5015832;28;20038;-75
2020/12/18 06:24:25;;;;;;;117.15;56.88;;;3.60;99.90;;;;;;5016210;28;20084;-75
2020/12/18 06:26:55;;;;;;;123.13;54.67;;;3.60;99.90;;;;;;5016130;28;20038;-75
2020/12/18 06:29:24;;;;;;;140.85;60.22;;;3.70;99.90;;;;;;5016068;28;20125;-74
2020/12/18 06:31:50;;;;;;;131.68;60.13;;;3.70;99.90;;;;;;5016496;28;20464;-74
2020/12/18 06:34:27;;;;;;;154.48;65.97;;;3.60;99.90;;;;;;5016325;28;20026;-74
2020/12/18 06:36:58;;;;;;;145.88;60.15;;;3.60;99.90;;;;;;5015607;28;20034;-74
2020/12/18 06:39:26;;;;;;;149.88;65.30;;;3.60;99.90;;;;;;5015922;28;20068;-75
2020/12/18 06:42:17;;;;;;;213.07;73.97;;;3.50;99.90;;;;;;5016190;28;20017;-72
2020/12/18 06:44:47;;;;;;;133.32;63.85;;;3.60;99.90;;;;;;5015849;28;20026;-75
2020/12/18 06:47:14;;;;;;;162.20;66.18;;;3.60;99.90;;;;;;5016199;28;20026;-74
2020/12/18 06:49:58;;;;;;;285.08;88.38;;;3.60;99.90;;;;;;5015799;28;20114;-75
2020/12/18 06:52:47;;;;;;;197.00;78.13;;;3.60;99.90;;;;;;5015783;28;20104;-74
2020/12/18 06:55:26;;;;;;;212.70;76.50;;;3.70;99.90;;;;;;5013426;28;20446;-73
2020/12/18 06:58:10;;;;;;;206.23;76.57;;;3.60;99.90;;;;;;5017166;28;20341;-74
2020/12/18 07:00:49;;;;;;;198.75;77.93;;;3.70;99.90;;;;;;5013818;28;20075;-74
2020/12/18 07:03:35;;;;;;;233.02;74.43;;;3.70;99.90;;;;;;5014965;28;20035;-74
2020/12/18 07:06:06;;;;;;;277.70;101.55;;;3.80;99.90;;;;;;5015317;28;20037;-75
2020/12/18 07:08:33;;;;;;;225.18;88.40;;;3.80;99.90;;;;;;5016758;28;20025;-74
2020/12/18 07:11:10;;;;;;;246.38;91.20;;;3.80;99.90;;;;;;5022490;28;20144;-73
2020/12/18 07:13:38;;;;;;;263.50;86.00;;;3.90;99.90;;;;;;5015869;28;20029;-74
2020/12/18 07:16:16;;;;;;;280.95;81.93;;;3.90;99.90;;;;;;5035378;28;20026;-75
2020/12/18 07:18:43;;;;;;;245.90;88.32;;;3.80;99.90;;;;;;5035046;28;20029;-73
2020/12/18 07:21:17;;;;;;;216.85;73.70;;;3.80;99.90;;;;;;5033169;28;20022;-74
2020/12/18 07:23:47;;;;;;;253.73;82.00;;;3.80;99.90;;;;;;5015136;28;20025;-75
2020/12/18 07:26:15;;;;;;;199.25;81.50;;;3.80;99.90;;;;;;5014655;28;20488;-74
2020/12/18 07:28:42;;;;;;;226.50;79.40;;;3.80;99.90;;;;;;5015270;28;20022;-74
2020/12/18 07:31:18;;;;;;;219.27;84.57;;;3.90;99.90;;;;;;5015162;28;20037;-74
2020/12/18 07:33:45;;;;;;;445.80;106.45;;;3.90;99.90;;;;;;5017259;28;20041;-75
2020/12/18 07:36:11;;;;;;;200.85;69.18;;;3.90;99.90;;;;;;5028119;28;20100;-74
2020/12/18 07:38:38;;;;;;;221.98;75.93;;;4.00;99.90;;;;;;5010214;28;20040;-78
2020/12/18 07:41:08;;;;;;;301.52;88.03;;;3.90;99.90;;;;;;5022391;28;20097;-74
2020/12/18 07:43:38;;;;;;;306.95;82.47;;;3.90;99.90;;;;;;5010189;28;20056;-74
2020/12/18 07:46:10;;;;;;;378.63;104.53;;;4.00;99.90;;;;;;5019720;28;20142;-74
2020/12/18 07:48:38;;;;;;;227.88;77.40;;;4.00;99.90;;;;;;5027474;28;20116;-76
2020/12/18 07:51:09;;;;;;;299.08;93.32;;;4.00;99.90;;;;;;5027288;28;20104;-77
2020/12/18 07:53:38;;;;;;;205.70;80.13;;;4.00;99.90;;;;;;5024164;28;20029;-75
2020/12/18 07:56:18;;;;;;;205.57;73.93;;;4.10;99.90;;;;;;5031095;28;20053;-74
2020/12/18 07:58:56;;;;;;;200.73;75.88;;;4.10;99.90;;;;;;5029475;28;20029;-75
2020/12/18 08:01:27;;;;;;;189.18;70.78;;;4.10;99.90;;;;;;5007814;28;20041;-74
2020/12/18 08:03:58;;;;;;;267.50;73.63;;;4.10;99.90;;;;;;5020186;28;20026;-75
2020/12/18 08:06:32;;;;;;;175.65;62.78;;;4.00;99.90;;;;;;5024096;28;20037;-75
2020/12/18 08:09:01;;;;;;;202.02;71.45;;;4.10;99.90;;;;;;5004459;28;20109;-75
2020/12/18 08:11:29;;;;;;;198.50;81.47;;;4.10;99.90;;;;;;5026738;28;20056;-74
2020/12/18 08:13:59;;;;;;;214.80;84.25;;;4.10;99.90;;;;;;5026487;28;20045;-73
2020/12/18 08:16:29;;;;;;;194.30;66.78;;;4.10;99.90;;;;;;5034023;28;20533;-72
2020/12/18 08:18:59;;;;;;;177.23;68.47;;;4.10;99.90;;;;;;5007645;28;20048;-73
2020/12/18 08:21:44;;;;;;;167.77;67.35;;;4.10;99.90;;;;;;5025648;28;20061;-72
2020/12/18 08:24:26;;;;;;;156.88;61.53;;;4.20;99.90;;;;;;5020631;28;20030;-74
2020/12/18 08:27:14;;;;;;;192.10;76.93;;;4.20;99.90;;;;;;5025931;28;20483;-74
2020/12/18 08:29:43;;;;;;;190.05;79.70;;;4.10;99.90;;;;;;5032967;28;20486;-73
2020/12/18 08:32:12;;;;;;;173.10;75.82;;;4.20;99.90;;;;;;5024117;28;20380;-76
2020/12/18 08:34:39;;;;;;;151.10;63.15;;;4.20;99.90;;;;;;5033719;28;20375;-75
2020/12/18 08:37:05;;;;;;;203.82;90.85;;;4.20;99.90;;;;;;5033300;28;20021;-74
2020/12/18 08:39:35;;;;;;;190.02;77.95;;;4.20;99.90;;;;;;5033671;28;20028;-75
2020/12/18 08:42:02;;;;;;;235.65;107.68;;;4.10;99.90;;;;;;5033076;28;20026;-74
2020/12/18 08:44:35;;;;;;;337.42;117.53;;;4.20;99.90;;;;;;5029295;28;20168;-76
2020/12/18 08:47:01;;;;;;;218.82;88.72;;;4.20;99.90;;;;;;5024065;28;20037;-74
2020/12/18 08:49:28;;;;;;;231.07;87.75;;;4.10;99.90;;;;;;5004629;28;20033;-75
2020/12/18 08:52:03;;;;;;;293.45;108.10;;;4.20;99.90;;;;;;5025934;28;20029;-73
2020/12/18 08:54:34;;;;;;;221.40;92.18;;;4.20;99.90;;;;;;5029089;28;20075;-75
2020/12/18 08:57:17;;;;;;;259.75;108.22;;;4.30;99.90;;;;;;5006737;28;20057;-77
2020/12/18 08:59:58;;;;;;;274.38;112.53;;;4.30;99.90;;;;;;5025416;28;20057;-75
2020/12/18 09:02:26;;;;;;;287.02;128.63;;;4.20;99.90;;;;;;5009392;28;20024;-82
2020/12/18 09:05:17;;;;;;;256.67;108.90;;;4.30;99.90;;;;;;5023604;28;20356;-75
2020/12/18 09:08:02;;;;;;;256.02;111.47;;;4.40;99.90;;;;;;5026313;28;20037;-77
2020/12/18 09:10:33;;;;;;;200.68;94.20;;;4.50;99.90;;;;;;5030344;28;20021;-74
2020/12/18 09:13:29;;;;;;;151.68;66.10;;;4.50;99.90;;;;;;5022943;28;20033;-75
2020/12/18 09:16:00;;;;;;;127.07;58.80;;;4.60;99.90;;;;;;4945667;29;20034;-76
2020/12/18 09:18:51;;;;;;;119.85;57.55;;;4.60;99.90;;;;;;4941571;29;20035;-80
2020/12/18 09:21:18;;;;;;;108.50;52.42;;;4.60;99.90;;;;;;4936069;29;20131;-76
2020/12/18 09:23:46;;;;;;;122.72;54.88;;;4.60;99.90;;;;;;4947422;29;20046;-76
2020/12/18 09:26:21;;;;;;;129.63;62.40;;;4.70;99.90;;;;;;4944711;29;20137;-76
2020/12/18 09:28:47;;;;;;;128.35;61.65;;;4.70;99.90;;;;;;4948662;29;20035;-74
2020/12/18 09:31:13;;;;;;;148.95;79.07;;;4.70;99.90;;;;;;4924963;29;20043;-74
2020/12/18 09:33:39;;;;;;;172.07;82.65;;;4.70;99.90;;;;;;4949431;29;20047;-75
2020/12/18 09:36:09;;;;;;;198.38;102.18;;;4.70;99.90;;;;;;4947519;29;20031;-74
2020/12/18 09:38:38;;;;;;;161.90;81.05;;;4.80;99.90;;;;;;4948219;29;20396;-74
2020/12/18 09:41:12;;;;;;;169.90;87.53;;;4.80;99.90;;;;;;4948612;29;20086;-75
2020/12/18 09:43:38;;;;;;;180.30;91.90;;;4.80;99.90;;;;;;4947981;29;20425;-73
2020/12/18 09:46:06;;;;;;;162.50;78.63;;;4.80;99.90;;;;;;4949012;29;20453;-74
2020/12/18 09:48:31;;;;;;;181.05;85.72;;;4.80;99.90;;;;;;4930455;29;20077;-74
2020/12/18 09:50:58;;;;;;;160.25;83.53;;;4.70;99.90;;;;;;4936972;29;20032;-78
2020/12/18 09:53:26;;;;;;;211.25;100.97;;;4.80;99.90;;;;;;5018303;28;20510;-75
2020/12/18 09:55:52;;;;;;;190.48;86.72;;;4.80;99.90;;;;;;5025316;28;20032;-75
2020/12/18 09:58:18;;;;;;;149.98;67.63;;;5.00;99.90;;;;;;5029762;28;20534;-73
2020/12/18 10:00:43;;;;;;;105.03;51.20;;;5.00;99.90;;;;;;4998619;28;20058;-76
2020/12/18 10:03:09;;;;;;;86.65;47.15;;;4.90;99.90;;;;;;5017272;28;20080;-78
2020/12/18 10:05:36;;;;;;;95.32;48.13;;;5.00;99.90;;;;;;5027305;28;20033;-78
2020/12/18 10:08:01;;;;;;;107.03;54.15;;;5.00;99.90;;;;;;5016240;28;20032;-78
2020/12/18 10:10:27;;;;;;;87.93;46.22;;;5.00;99.90;;;;;;4998660;28;20025;-77
2020/12/18 10:12:54;;;;;;;99.63;52.67;;;5.00;99.90;;;;;;4997812;28;20464;-77
2020/12/18 10:15:20;;;;;;;118.75;62.35;;;5.00;99.90;;;;;;4997477;28;20029;-76
2020/12/18 10:17:46;;;;;;;135.43;63.92;;;5.00;99.90;;;;;;5026950;28;20038;-78
2020/12/18 10:20:12;;;;;;;115.72;58.88;;;5.10;99.90;;;;;;5010623;28;20026;-75
2020/12/18 10:22:38;;;;;;;121.47;60.20;;;5.20;99.90;;;;;;5019775;28;20026;-77
2020/12/18 10:25:04;;;;;;;185.40;91.65;;;5.20;99.90;;;;;;5012837;28;20033;-77
2020/12/18 10:27:30;;;;;;;149.75;79.57;;;5.20;99.90;;;;;;5013219;28;20038;-76
2020/12/18 10:29:55;;;;;;;159.00;79.07;;;5.20;99.90;;;;;;5013056;28;20361;-76
2020/12/18 10:32:25;;;;;;;159.55;77.78;;;5.10;99.90;;;;;;5013196;28;20034;-74
2020/12/18 10:34:51;;;;;;;144.50;76.10;;;5.10;99.90;;;;;;5011993;28;20026;-76
2020/12/18 10:37:16;;;;;;;184.95;88.32;;;5.20;99.90;;;;;;5012808;28;20495;-74
2020/12/18 10:39:42;;;;;;;187.30;81.95;;;5.10;99.90;;;;;;5016317;28;20026;-75
2020/12/18 10:42:08;;;;;;;149.70;70.32;;;5.10;99.90;;;;;;5016029;28;20026;-77
2020/12/18 10:44:35;;;;;;;148.65;77.05;;;5.00;99.90;;;;;;5016241;28;20030;-76
2020/12/18 10:47:01;;;;;;;91.20;46.25;;;5.00;99.90;;;;;;5016362;28;20026;-78
2020/12/18 10:49:27;;;;;;;99.82;46.60;;;5.00;99.90;;;;;;5017030;28;20041;-74
2020/12/18 10:51:53;;;;;;;105.00;50.70;;;5.10;99.90;;;;;;5016351;28;20034;-75
2020/12/18 10:54:18;;;;;;;131.75;67.35;;;5.20;99.90;;;;;;4999719;28;20025;-74
2020/12/18 10:56:47;;;;;;;155.55;75.97;;;5.20;99.90;;;;;;5017044;28;20048;-75
2020/12/18 10:59:13;;;;;;;151.32;79.72;;;5.30;99.90;;;;;;5024433;28;20025;-76
2020/12/18 11:01:39;;;;;;;144.43;73.03;;;5.30;99.90;;;;;;5026966;28;20046;-75
2020/12/18 11:04:06;;;;;;;152.02;75.38;;;5.20;99.90;;;;;;5011688;28;20072;-76
2020/12/18 11:06:32;;;;;;;153.85;78.95;;;5.30;99.90;;;;;;5029797;28;20021;-78
2020/12/18 11:08:58;;;;;;;166.25;78.97;;;5.20;99.90;;;;;;5021705;28;20037;-77
2020/12/18 11:11:29;;;;;;;144.50;70.82;;;5.30;99.90;;;;;;5030572;28;20033;-74
2020/12/18 11:13:56;;;;;;;148.52;72.60;;;5.30;99.90;;;;;;5033861;28;20456;-76
2020/12/18 11:16:22;;;;;;;133.82;68.10;;;5.40;99.90;;;;;;5031324;28;20041;-76
2020/12/18 11:18:48;;;;;;;109.45;57.28;;;5.40;99.90;;;;;;5033682;28;20030;-77
2020/12/18 11:21:14;;;;;;;117.68;62.92;;;5.40;99.90;;;;;;5033411;28;20124;-76
2020/12/18 11:23:40;;;;;;;100.22;53.20;;;5.40;99.90;;;;;;5033390;28;20076;-77
2020/12/18 11:26:06;;;;;;;106.25;57.13;;;5.30;99.90;;;;;;5032061;28;20822;-78
2020/12/18 11:28:32;;;;;;;112.05;54.45;;;5.30;99.90;;;;;;5034008;28;20021;-77
2020/12/18 11:30:59;;;;;;;94.57;47.05;;;5.20;99.90;;;;;;5033125;28;20025;-75
2020/12/18 11:33:25;;;;;;;103.97;47.75;;;5.20;99.90;;;;;;5033204;28;20017;-75
2020/12/18 11:35:51;;;;;;;99.25;45.95;;;5.10;99.90;;;;;;5032002;28;20143;-76
2020/12/18 11:38:17;;;;;;;95.50;47.45;;;5.10;99.90;;;;;;5032475;28;20025;-76
2020/12/18 11:40:42;;;;;;;98.70;48.35;;;5.00;99.90;;;;;;5015397;28;20120;-73
2020/12/18 11:43:08;;;;;;;131.15;62.83;;;5.20;99.90;;;;;;5028008;28;20527;-75
2020/12/18 11:45:34;;;;;;;126.63;61.45;;;5.20;99.90;;;;;;5014046;28;20049;-74
2020/12/18 11:48:00;;;;;;;118.40;53.10;;;5.10;99.90;;;;;;5027692;28;20045;-81
2020/12/18 11:50:28;;;;;;;128.43;59.40;;;5.10;99.90;;;;;;5026131;28;20030;-79
2020/12/18 11:52:58;;;;;;;116.30;60.53;;;5.10;99.90;;;;;;5024929;28;20044;-78
2020/12/18 11:55:25;;;;;;;154.95;76.95;;;5.20;99.90;;;;;;5003488;28;20761;-74
2020/12/18 11:57:51;;;;;;;147.52;76.00;;;5.20;99.90;;;;;;5001061;28;20018;-74
2020/12/18 12:00:20;;;;;;;112.47;57.42;;;5.20;99.90;;;;;;5026979;28;20118;-73
2020/12/18 12:02:50;;;;;;;114.95;61.50;;;5.30;99.90;;;;;;5027710;28;20044;-74
2020/12/18 12:05:17;;;;;;;139.88;72.97;;;5.20;99.90;;;;;;5033751;28;20427;-80
2020/12/18 12:07:43;;;;;;;132.77;68.72;;;5.20;99.90;;;;;;5034936;28;20517;-77
2020/12/18 12:10:10;;;;;;;124.95;62.75;;;5.30;99.90;;;;;;5001142;28;20503;-75
2020/12/18 12:12:36;;;;;;;126.72;62.22;;;5.40;99.90;;;;;;5032869;28;20112;-78
2020/12/18 12:15:05;;;;;;;129.18;63.10;;;5.40;99.90;;;;;;5010211;28;20025;-76
2020/12/18 12:17:31;;;;;;;106.97;51.88;;;5.40;99.90;;;;;;5034638;28;20021;-73
2020/12/18 12:19:57;;;;;;;95.65;53.42;;;5.40;99.90;;;;;;5028778;28;20562;-74
2020/12/18 12:22:23;;;;;;;114.65;51.28;;;5.20;99.90;;;;;;5021434;28;20443;-75
2020/12/18 12:24:50;;;;;;;115.28;55.08;;;5.20;99.90;;;;;;5013160;28;20053;-77
2020/12/18 12:27:19;;;;;;;110.55;55.05;;;5.20;99.90;;;;;;5013287;28;20029;-75
2020/12/18 12:29:44;;;;;;;121.60;56.10;;;5.20;99.90;;;;;;4995647;28;20468;-75
2020/12/18 12:32:10;;;;;;;144.65;67.43;;;5.20;99.90;;;;;;5021803;28;20079;-76
2020/12/18 12:34:36;;;;;;;125.63;60.05;;;5.20;99.90;;;;;;5026023;28;20029;-77
2020/12/18 12:37:02;;;;;;;131.82;62.17;;;5.20;99.90;;;;;;5028153;28;20031;-75